createdAt,value
2018-12-04T00:02:19.190Z,98.00
2018-12-04T00:04:46.645Z,98.10
2018-12-04T00:07:14.120Z,98.00
2018-12-04T00:09:41.581Z,98.10
2018-12-04T00:12:09.059Z,97.90
2018-12-04T00:14:36.522Z,98.00
2018-12-04T00:17:04.081Z,98.20
2018-12-04T00:19:31.553Z,98.10
2018-12-04T00:21:59.314Z,98.20
2018-12-04T00:24:26.788Z,98.20
2018-12-04T00:26:54.246Z,98.30
2018-12-04T00:29:21.720Z,98.30
2018-12-04T00:31:49.181Z,98.10
2018-12-04T00:34:16.636Z,98.10
2018-12-04T00:36:44.112Z,98.10
2018-12-04T00:39:11.817Z,98.10
2018-12-04T00:41:39.276Z,98.20
2018-12-04T00:44:06.749Z,98.20
2018-12-04T00:46:34.494Z,98.60
2018-12-04T00:49:01.983Z,98.30
2018-12-04T00:51:29.613Z,98.30
2018-12-04T00:53:57.593Z,98.30
2018-12-04T00:56:25.108Z,98.30
2018-12-04T00:58:52.801Z,98.30
2018-12-04T01:01:20.368Z,98.30
2018-12-04T01:03:47.836Z,98.30
2018-12-04T01:06:15.297Z,98.30
2018-12-04T01:08:42.781Z,98.30
2018-12-04T01:11:11.110Z,98.40
2018-12-04T01:13:38.575Z,98.40
2018-12-04T01:16:06.051Z,98.30
2018-12-04T01:18:33.786Z,98.40
2018-12-04T01:21:01.241Z,98.40
2018-12-04T01:23:28.713Z,98.40
2018-12-04T01:25:56.169Z,98.40
2018-12-04T01:28:23.641Z,98.40
2018-12-04T01:30:51.101Z,98.40
2018-12-04T01:33:18.746Z,98.40
2018-12-04T01:35:46.234Z,98.30
2018-12-04T01:38:13.689Z,98.30
2018-12-04T01:40:41.408Z,98.20
2018-12-04T01:43:08.888Z,98.00
2018-12-04T01:45:36.356Z,97.80
2018-12-04T01:48:04.085Z,97.60
2018-12-04T01:50:31.571Z,97.40
2018-12-04T01:52:59.033Z,97.10
2018-12-04T01:55:26.509Z,97.20
2018-12-04T01:57:53.962Z,96.90
2018-12-04T02:00:21.498Z,97.10
2018-12-04T02:02:49.068Z,96.80
2018-12-04T02:05:16.524Z,96.90
2018-12-04T02:07:43.998Z,96.80
2018-12-04T02:10:11.453Z,96.80
2018-12-04T02:12:39.059Z,96.70
2018-12-04T02:15:06.681Z,96.70
2018-12-04T02:17:34.141Z,96.80
2018-12-04T02:20:01.604Z,96.70
2018-12-04T02:22:29.101Z,96.60
2018-12-04T02:24:56.557Z,96.80
2018-12-04T02:27:24.008Z,96.70
2018-12-04T02:29:52.521Z,96.80
2018-12-04T02:32:20.381Z,96.90
2018-12-04T02:34:48.269Z,96.80
2018-12-04T02:37:15.740Z,96.80
2018-12-04T02:39:43.198Z,96.90
2018-12-04T02:42:10.669Z,96.90
2018-12-04T02:44:38.132Z,97.00
2018-12-04T02:47:05.609Z,97.10
2018-12-04T02:49:33.066Z,96.90
2018-12-04T02:52:00.554Z,96.80
2018-12-04T02:54:28.031Z,96.80
2018-12-04T02:56:55.485Z,96.80
2018-12-04T02:59:22.996Z,96.90
2018-12-04T03:01:50.449Z,96.90
2018-12-04T03:04:17.908Z,96.90
2018-12-04T03:06:45.417Z,96.90
2018-12-04T03:09:13.433Z,96.90
2018-12-04T03:11:40.905Z,97.00
2018-12-04T03:14:08.373Z,96.90
2018-12-04T03:16:35.853Z,96.90
2018-12-04T03:19:03.326Z,96.90
2018-12-04T03:21:30.782Z,97.10
2018-12-04T03:23:58.273Z,97.00
2018-12-04T03:26:25.720Z,97.00
2018-12-04T03:28:53.181Z,96.70
2018-12-04T03:31:20.959Z,96.70
2018-12-04T03:33:48.456Z,96.90
2018-12-04T03:36:16.005Z,97.00
2018-12-04T03:38:43.461Z,96.90
2018-12-04T03:41:10.919Z,96.80
2018-12-04T03:43:38.388Z,96.60
2018-12-04T03:46:05.845Z,96.70
2018-12-04T03:48:33.320Z,96.90
2018-12-04T03:51:00.788Z,96.80
2018-12-04T03:53:28.481Z,96.80
2018-12-04T03:55:55.957Z,97.00
2018-12-04T03:58:23.417Z,97.00
2018-12-04T04:00:50.875Z,97.00
2018-12-04T04:03:18.617Z,96.90
2018-12-04T04:05:46.073Z,97.00
2018-12-04T04:08:13.614Z,97.00
2018-12-04T04:10:41.158Z,97.10
2018-12-04T04:13:08.614Z,97.00
2018-12-04T04:15:37.707Z,97.10
2018-12-04T04:18:05.157Z,96.90
2018-12-04T04:20:32.638Z,97.00
2018-12-04T04:23:00.593Z,96.80
2018-12-04T04:25:28.057Z,96.60
2018-12-04T04:27:55.534Z,96.60
2018-12-04T04:30:24.043Z,96.60
2018-12-04T04:32:52.415Z,96.30
2018-12-04T04:35:19.870Z,96.50
2018-12-04T04:37:47.345Z,96.50
2018-12-04T04:40:14.859Z,96.50
2018-12-04T04:42:42.321Z,96.30
2018-12-04T04:45:09.793Z,96.30
2018-12-04T04:47:37.254Z,96.20
2018-12-04T04:50:04.861Z,95.70
2018-12-04T04:52:32.571Z,95.60
2018-12-04T04:55:00.439Z,95.60
2018-12-04T04:57:28.013Z,94.90
2018-12-04T04:59:55.470Z,95.40
2018-12-04T05:02:22.942Z,95.60
2018-12-04T05:04:50.490Z,95.50
2018-12-04T05:07:17.949Z,95.10
2018-12-04T05:09:45.573Z,93.70
2018-12-04T05:12:13.026Z,94.20
2018-12-04T05:14:40.498Z,94.90
2018-12-04T05:17:07.981Z,95.70
2018-12-04T05:19:35.433Z,94.30
2018-12-04T05:22:03.053Z,95.20
2018-12-04T05:24:30.525Z,95.60
2018-12-04T05:26:57.989Z,95.40
2018-12-04T05:29:25.476Z,95.70
2018-12-04T05:31:52.929Z,95.30
2018-12-04T05:34:20.406Z,95.40
2018-12-04T05:36:48.228Z,95.70
2018-12-04T05:39:15.733Z,96.30
2018-12-04T05:41:43.201Z,96.80
2018-12-04T05:44:10.677Z,97.20
2018-12-04T05:46:38.147Z,97.40
2018-12-04T05:49:05.621Z,97.50
2018-12-04T05:51:33.077Z,97.70
2018-12-04T05:54:00.625Z,97.70
2018-12-04T05:56:28.105Z,97.60
2018-12-04T05:58:55.565Z,97.50
2018-12-04T06:01:23.120Z,97.30
2018-12-04T06:03:50.573Z,97.30
2018-12-04T06:06:18.325Z,97.30
2018-12-04T06:08:45.797Z,97.30
2018-12-04T06:11:13.253Z,97.20
2018-12-04T06:13:40.730Z,96.90
2018-12-04T06:16:08.307Z,96.80
2018-12-04T06:18:35.757Z,96.80
2018-12-04T06:21:03.406Z,97.20
2018-12-04T06:23:30.873Z,97.00
2018-12-04T06:25:58.592Z,96.90
2018-12-04T06:28:26.069Z,96.90
2018-12-04T06:30:53.525Z,97.00
2018-12-04T06:33:21.150Z,96.70
2018-12-04T06:35:48.606Z,96.70
2018-12-04T06:38:16.083Z,96.70
2018-12-04T06:40:43.837Z,96.70
2018-12-04T06:43:11.285Z,96.80
2018-12-04T06:45:38.766Z,96.60
2018-12-04T06:48:06.289Z,96.70
2018-12-04T06:50:33.766Z,96.50
2018-12-04T06:53:01.236Z,96.50
2018-12-04T06:55:28.691Z,96.10
2018-12-04T06:57:57.149Z,96.00
2018-12-04T07:00:24.736Z,96.20
2018-12-04T07:02:52.257Z,96.30
2018-12-04T07:05:19.709Z,96.40
2018-12-04T07:07:47.164Z,96.50
2018-12-04T07:10:14.645Z,96.60
2018-12-04T07:12:42.103Z,96.60
2018-12-04T07:15:09.644Z,96.10
2018-12-04T07:17:37.106Z,96.20
2018-12-04T07:20:05.816Z,96.30
2018-12-04T07:22:33.293Z,96.40
2018-12-04T07:25:01.025Z,96.40
2018-12-04T07:27:28.490Z,96.40
2018-12-04T07:29:56.256Z,96.30
2018-12-04T07:32:23.870Z,96.10
2018-12-04T07:34:51.329Z,96.00
2018-12-04T07:37:19.038Z,96.00
2018-12-04T07:39:46.792Z,95.90
2018-12-04T07:42:14.315Z,96.10
2018-12-04T07:44:41.908Z,96.20
2018-12-04T07:47:09.385Z,96.10
2018-12-04T07:49:36.861Z,95.60
2018-12-04T07:52:04.405Z,95.70
2018-12-04T07:54:32.145Z,95.40
2018-12-04T07:56:59.625Z,95.10
2018-12-04T07:59:27.929Z,94.80
2018-12-04T08:01:55.393Z,95.40
2018-12-04T08:04:22.872Z,95.50
2018-12-04T08:06:50.329Z,95.60
2018-12-04T08:09:17.811Z,95.70
2018-12-04T08:11:45.289Z,96.20
2018-12-04T08:14:12.748Z,95.80
2018-12-04T08:16:40.508Z,95.50
2018-12-04T08:19:09.121Z,95.20
2018-12-04T08:21:37.977Z,94.20
2018-12-04T08:24:06.044Z,94.40
2018-12-04T08:26:33.588Z,93.90
2018-12-04T08:29:01.971Z,93.80
2018-12-04T08:31:29.833Z,94.20
2018-12-04T08:33:57.296Z,94.40
2018-12-04T08:36:25.804Z,94.70
2018-12-04T08:38:53.362Z,94.20
2018-12-04T08:41:21.306Z,92.80
2018-12-04T08:43:48.781Z,93.00
2018-12-04T08:46:16.585Z,94.60
2018-12-04T08:48:44.040Z,93.90
2018-12-04T08:51:11.516Z,92.60
2018-12-04T08:53:38.985Z,89.10
2018-12-04T08:56:06.464Z,89.20
2018-12-04T08:58:33.917Z,87.50
2018-12-04T09:01:02.321Z,88.80
2018-12-04T09:03:30.045Z,86.10
2018-12-04T09:05:57.525Z,80.10
2018-12-04T09:08:25.005Z,81.80
2018-12-04T09:10:52.460Z,82.10
2018-12-04T09:13:22.079Z,84.00
2018-12-04T09:15:49.617Z,84.30
2018-12-04T09:18:18.771Z,80.60
2018-12-04T09:20:48.759Z,85.00
2018-12-04T09:23:18.145Z,78.20
2018-12-04T09:25:45.726Z,77.40
2018-12-04T09:28:13.319Z,80.40
2018-12-04T09:30:41.186Z,75.70
2018-12-04T09:33:09.758Z,56.50
2018-12-04T09:35:37.537Z,53.40
2018-12-04T09:38:04.993Z,43.20
2018-12-04T09:40:32.472Z,27.30
2018-12-04T09:43:04.160Z,33.20
2018-12-04T09:45:29.823Z,12.90
2018-12-04T09:47:57.279Z,1.00
2018-12-04T09:50:24.793Z,42.70
2018-12-04T09:52:52.305Z,33.70
2018-12-04T09:55:19.757Z,42.70
2018-12-04T09:57:47.234Z,37.60
2018-12-04T10:00:14.753Z,48.00
2018-12-04T10:02:42.213Z,49.10
2018-12-04T10:05:09.688Z,54.90
2018-12-04T10:07:37.149Z,55.50
2018-12-04T10:10:06.073Z,41.00
2018-12-04T10:12:33.613Z,6.30
2018-12-04T10:15:01.073Z,28.30
2018-12-04T10:17:28.801Z,1.00
2018-12-04T10:19:56.262Z,1.00
2018-12-04T10:22:23.741Z,1.00
2018-12-04T10:24:51.219Z,1.00
2018-12-04T10:27:18.682Z,99.90
2018-12-04T10:29:46.805Z,1.00
2018-12-04T10:32:14.261Z,1.00
2018-12-04T10:34:42.073Z,1.00
2018-12-04T10:37:09.566Z,1.00
2018-12-04T10:39:37.034Z,1.00
2018-12-04T10:42:04.485Z,1.00
2018-12-04T10:44:32.261Z,1.00
2018-12-04T10:47:00.025Z,1.00
2018-12-04T10:49:27.500Z,1.00
2018-12-04T10:51:54.962Z,1.00
2018-12-04T10:54:22.420Z,1.00
2018-12-04T10:56:49.909Z,1.00
2018-12-04T10:59:17.364Z,1.00
2018-12-04T11:01:50.636Z,1.00
2018-12-04T11:04:18.085Z,1.00
2018-12-04T11:06:45.571Z,10.60
2018-12-04T11:09:13.056Z,5.60
2018-12-04T11:11:40.519Z,1.00
2018-12-04T11:14:08.009Z,1.00
2018-12-04T11:16:35.480Z,1.00
2018-12-04T11:19:02.928Z,1.00
2018-12-04T11:21:30.396Z,1.00
2018-12-04T11:23:57.853Z,1.00
2018-12-04T11:26:25.329Z,1.00
2018-12-04T11:28:52.781Z,1.00
2018-12-04T11:31:20.250Z,1.00
2018-12-04T11:33:48.049Z,1.00
2018-12-04T11:36:15.505Z,1.00
2018-12-04T11:38:43.020Z,1.00
2018-12-04T11:41:10.829Z,1.00
2018-12-04T11:43:38.285Z,1.00
2018-12-04T11:46:05.791Z,13.40
2018-12-04T11:48:33.839Z,19.90
2018-12-04T11:51:02.094Z,22.50
2018-12-04T11:53:30.594Z,23.50
2018-12-04T11:55:58.337Z,20.90
2018-12-04T11:58:26.425Z,32.90
2018-12-04T12:00:55.374Z,40.90
2018-12-04T12:03:23.559Z,48.60
2018-12-04T12:05:51.337Z,48.20
2018-12-04T12:08:19.102Z,46.30
2018-12-04T12:10:47.062Z,48.20
2018-12-04T12:13:14.605Z,43.90
2018-12-04T12:15:42.076Z,44.90
2018-12-04T12:18:09.598Z,44.50
2018-12-04T12:20:37.090Z,41.30
2018-12-04T12:23:04.557Z,34.70
2018-12-04T12:25:32.013Z,31.00
2018-12-04T12:27:59.485Z,35.20
2018-12-04T12:30:26.942Z,39.90
2018-12-04T12:32:54.421Z,33.80
2018-12-04T12:35:21.876Z,41.30
2018-12-04T12:37:49.332Z,37.10
2018-12-04T12:40:16.808Z,42.70
2018-12-04T12:42:44.265Z,48.10
2018-12-04T12:45:11.766Z,47.10
2018-12-04T12:47:39.220Z,37.00
2018-12-04T12:50:07.345Z,42.50
2018-12-04T12:52:34.841Z,44.30
2018-12-04T12:55:02.298Z,31.40
2018-12-04T12:57:30.085Z,50.20
2018-12-04T12:59:57.544Z,48.40
2018-12-04T13:02:25.040Z,51.90
2018-12-04T13:04:52.528Z,44.50
2018-12-04T13:07:19.989Z,42.70
2018-12-04T13:09:47.779Z,28.40
2018-12-04T13:12:15.257Z,34.10
2018-12-04T13:14:42.741Z,37.00
2018-12-04T13:17:10.213Z,36.90
2018-12-04T13:19:37.748Z,27.90
2018-12-04T13:22:05.280Z,29.00
2018-12-04T13:24:32.917Z,26.40
2018-12-04T13:27:00.408Z,30.20
2018-12-04T13:29:28.149Z,34.30
2018-12-04T13:31:55.793Z,29.50
2018-12-04T13:34:23.317Z,23.50
2018-12-04T13:36:51.276Z,22.40
2018-12-04T13:39:18.728Z,25.10
2018-12-04T13:41:46.299Z,27.00
2018-12-04T13:44:13.777Z,17.50
2018-12-04T13:46:41.735Z,2.30
2018-12-04T13:49:09.314Z,9.20
2018-12-04T13:51:36.782Z,9.40
2018-12-04T13:54:04.355Z,1.10
2018-12-04T13:56:31.920Z,1.00
2018-12-04T13:58:59.464Z,12.30
2018-12-04T14:01:26.997Z,1.00
2018-12-04T14:03:54.907Z,1.00
2018-12-04T14:06:22.810Z,1.10
2018-12-04T14:08:50.289Z,1.00
2018-12-04T14:11:17.760Z,10.70
2018-12-04T14:13:45.841Z,12.40
2018-12-04T14:16:13.399Z,4.20
2018-12-04T14:18:40.856Z,11.60
2018-12-04T14:21:08.503Z,10.80
2018-12-04T14:23:36.036Z,13.80
2018-12-04T14:26:03.582Z,23.40
2018-12-04T14:28:31.427Z,22.80
2018-12-04T14:30:58.981Z,25.10
2018-12-04T14:33:26.744Z,18.50
2018-12-04T14:35:54.220Z,23.70
2018-12-04T14:38:24.656Z,18.20
2018-12-04T14:40:51.194Z,23.50
2018-12-04T14:43:18.741Z,22.30
2018-12-04T14:45:46.236Z,24.90
2018-12-04T14:48:14.286Z,31.20
2018-12-04T14:50:41.852Z,32.20
2018-12-04T14:53:09.621Z,35.10
2018-12-04T14:55:37.360Z,35.70
2018-12-04T14:58:04.903Z,39.70
2018-12-04T15:00:32.396Z,44.70
2018-12-04T15:03:00.143Z,43.70
2018-12-04T15:05:27.766Z,47.20
2018-12-04T15:07:55.233Z,46.00
2018-12-04T15:10:22.728Z,48.50
2018-12-04T15:12:50.249Z,42.10
2018-12-04T15:15:17.835Z,43.60
2018-12-04T15:17:45.407Z,41.60
2018-12-04T15:20:13.343Z,37.70
2018-12-04T15:22:40.809Z,38.00
2018-12-04T15:25:08.325Z,33.80
2018-12-04T15:27:35.877Z,37.20
2018-12-04T15:30:05.979Z,37.40
2018-12-04T15:32:33.487Z,37.50
2018-12-04T15:35:00.949Z,35.60
2018-12-04T15:37:28.545Z,31.20
2018-12-04T15:39:56.016Z,36.80
2018-12-04T15:42:23.495Z,31.10
2018-12-04T15:44:50.975Z,34.30
2018-12-04T15:47:18.741Z,40.50
2018-12-04T15:49:46.355Z,38.40
2018-12-04T15:52:13.887Z,40.40
2018-12-04T15:54:41.392Z,36.30
2018-12-04T15:57:08.949Z,19.70
2018-12-04T15:59:36.410Z,26.30
2018-12-04T16:02:04.076Z,37.10
2018-12-04T16:04:31.568Z,39.30
2018-12-04T16:06:59.053Z,42.60
2018-12-04T16:09:27.125Z,48.80
2018-12-04T16:11:54.580Z,47.40
2018-12-04T16:14:22.054Z,47.30
2018-12-04T16:16:49.779Z,47.90
2018-12-04T16:19:17.273Z,50.00
2018-12-04T16:21:44.855Z,49.10
2018-12-04T16:24:12.325Z,48.90
2018-12-04T16:26:39.812Z,53.60
2018-12-04T16:29:07.357Z,55.50
2018-12-04T16:31:34.817Z,55.70
2018-12-04T16:34:02.426Z,55.60
2018-12-04T16:36:30.019Z,56.60
2018-12-04T16:38:58.077Z,59.60
2018-12-04T16:41:25.770Z,56.90
2018-12-04T16:43:53.231Z,54.60
2018-12-04T16:46:20.708Z,57.90
2018-12-04T16:48:48.241Z,59.10
2018-12-04T16:51:15.705Z,60.30
2018-12-04T16:53:43.202Z,60.90
2018-12-04T16:56:10.739Z,63.80
2018-12-04T16:58:38.377Z,62.20
2018-12-04T17:01:06.157Z,61.00
2018-12-04T17:03:33.874Z,50.70
2018-12-04T17:06:01.448Z,49.20
2018-12-04T17:08:29.097Z,50.40
2018-12-04T17:10:56.581Z,43.70
2018-12-04T17:13:24.064Z,43.50
2018-12-04T17:15:51.537Z,51.60
2018-12-04T17:18:19.012Z,52.80
2018-12-04T17:20:46.481Z,53.40
2018-12-04T17:23:14.919Z,57.50
2018-12-04T17:25:42.651Z,63.90
2018-12-04T17:28:10.137Z,70.30
2018-12-04T17:30:37.626Z,72.90
2018-12-04T17:33:05.518Z,73.90
2018-12-04T17:35:33.012Z,74.70
2018-12-04T17:38:08.535Z,75.70
2018-12-04T17:40:37.051Z,76.50
2018-12-04T17:43:04.589Z,75.60
2018-12-04T17:45:32.078Z,75.50
2018-12-04T17:47:59.549Z,75.80
2018-12-04T17:50:27.070Z,75.50
2018-12-04T17:52:54.899Z,74.40
2018-12-04T17:55:22.360Z,73.30
2018-12-04T17:57:49.829Z,72.90
2018-12-04T18:00:17.308Z,75.10
2018-12-04T18:02:44.785Z,75.90
2018-12-04T18:05:12.267Z,76.20
2018-12-04T18:07:39.834Z,76.50
2018-12-04T18:10:07.917Z,77.10
2018-12-04T18:12:35.468Z,79.30
2018-12-04T18:15:03.271Z,79.10
2018-12-04T18:17:30.772Z,76.30
2018-12-04T18:19:58.241Z,75.50
2018-12-04T18:22:25.769Z,77.20
2018-12-04T18:24:53.260Z,79.30
2018-12-04T18:27:20.720Z,80.30
2018-12-04T18:29:48.275Z,80.80
2018-12-04T18:32:15.765Z,81.30
2018-12-04T18:34:43.335Z,79.60
2018-12-04T18:37:10.834Z,79.90
2018-12-04T18:39:38.377Z,80.60
2018-12-04T18:42:06.094Z,79.90
2018-12-04T18:44:33.565Z,84.20
2018-12-04T18:47:01.102Z,84.70
2018-12-04T18:49:29.020Z,83.30
2018-12-04T18:51:56.729Z,83.00
2018-12-04T18:54:24.213Z,84.00
2018-12-04T18:56:51.690Z,83.90
2018-12-04T18:59:19.304Z,84.70
2018-12-04T19:01:46.848Z,85.40
2018-12-04T19:04:14.319Z,84.00
2018-12-04T19:06:41.793Z,83.40
2018-12-04T19:09:09.385Z,78.80
2018-12-04T19:11:36.851Z,81.00
2018-12-04T19:14:04.597Z,84.00
2018-12-04T19:16:32.082Z,85.50
2018-12-04T19:18:59.565Z,85.40
2018-12-04T19:21:27.124Z,90.30
2018-12-04T19:23:54.693Z,90.80
2018-12-04T19:26:22.902Z,90.80
2018-12-04T19:28:51.865Z,90.50
2018-12-04T19:31:19.383Z,90.30
2018-12-04T19:33:47.177Z,90.00
2018-12-04T19:36:14.955Z,88.80
2018-12-04T19:38:42.434Z,86.60
2018-12-04T19:41:09.905Z,87.30
2018-12-04T19:43:37.361Z,84.90
2018-12-04T19:46:04.863Z,86.50
2018-12-04T19:48:32.321Z,88.40
2018-12-04T19:50:59.784Z,88.90
2018-12-04T19:53:27.260Z,90.10
2018-12-04T19:55:54.758Z,89.10
2018-12-04T19:58:22.473Z,89.40
2018-12-04T20:00:49.941Z,89.00
2018-12-04T20:03:17.405Z,88.00
2018-12-04T20:05:44.966Z,87.50
2018-12-04T20:08:12.429Z,86.70
2018-12-04T20:10:39.965Z,89.50
2018-12-04T20:13:07.454Z,89.60
2018-12-04T20:15:34.913Z,89.00
2018-12-04T20:18:03.002Z,88.60
2018-12-04T20:20:30.487Z,88.90
2018-12-04T20:22:57.941Z,88.90
2018-12-04T20:25:25.418Z,90.10
2018-12-04T20:27:53.193Z,90.50
2018-12-04T20:30:20.669Z,90.80
2018-12-04T20:32:48.130Z,91.10
2018-12-04T20:35:15.620Z,91.10
2018-12-04T20:37:43.097Z,90.80
2018-12-04T20:40:10.557Z,90.40
2018-12-04T20:42:38.134Z,90.10
2018-12-04T20:45:06.390Z,90.10
2018-12-04T20:47:33.846Z,88.80
2018-12-04T20:50:01.549Z,87.70
2018-12-04T20:52:29.281Z,87.40
2018-12-04T20:54:57.414Z,87.50
2018-12-04T20:57:24.911Z,87.30
2018-12-04T20:59:52.365Z,87.20
2018-12-04T21:02:19.845Z,87.00
2018-12-04T21:04:47.309Z,86.90
2018-12-04T21:07:14.898Z,88.00
2018-12-04T21:09:42.417Z,87.50
2018-12-04T21:12:09.885Z,86.90
2018-12-04T21:14:37.720Z,87.50
2018-12-04T21:17:05.213Z,88.00
2018-12-04T21:19:33.311Z,88.70
2018-12-04T21:22:00.805Z,88.80
2018-12-04T21:24:28.441Z,89.20
2018-12-04T21:26:56.226Z,88.80
2018-12-04T21:29:29.581Z,89.10
2018-12-04T21:32:02.993Z,90.00
2018-12-04T21:34:36.146Z,90.10
2018-12-04T21:37:09.305Z,89.90
2018-12-04T21:39:36.676Z,89.80
2018-12-04T21:42:06.870Z,89.90
2018-12-04T21:44:40.193Z,90.10
2018-12-04T21:47:13.385Z,90.30
2018-12-04T21:49:40.861Z,90.30
2018-12-04T21:52:08.345Z,90.70
2018-12-04T21:54:35.852Z,91.10
2018-12-04T21:57:03.382Z,91.20
2018-12-04T21:59:31.161Z,91.30
2018-12-04T22:01:58.709Z,91.60
2018-12-04T22:04:26.169Z,91.80
2018-12-04T22:06:53.657Z,92.00
2018-12-04T22:09:21.121Z,92.10
2018-12-04T22:11:48.639Z,92.30
2018-12-04T22:14:16.415Z,92.20
2018-12-04T22:16:43.877Z,92.10
2018-12-04T22:19:11.357Z,91.80
2018-12-04T22:21:39.093Z,92.20
2018-12-04T22:24:06.554Z,92.20
2018-12-04T22:26:34.036Z,92.10
2018-12-04T22:29:01.533Z,92.20
2018-12-04T22:31:29.010Z,92.10
2018-12-04T22:33:56.696Z,91.90
2018-12-04T22:36:24.158Z,91.60
2018-12-04T22:38:51.901Z,91.80
2018-12-04T22:41:20.069Z,91.60
2018-12-04T22:43:47.541Z,91.70
2018-12-04T22:46:15.001Z,91.30
2018-12-04T22:48:42.461Z,91.20
2018-12-04T22:51:09.933Z,92.00
2018-12-04T22:53:37.460Z,92.10
2018-12-04T22:56:04.961Z,92.10
2018-12-04T22:58:32.436Z,92.10
2018-12-04T23:00:59.896Z,91.40
2018-12-04T23:03:27.399Z,91.50
2018-12-04T23:05:54.857Z,90.90
2018-12-04T23:08:22.337Z,91.60
2018-12-04T23:10:49.817Z,91.80
2018-12-04T23:13:17.453Z,92.00
2018-12-04T23:15:44.994Z,92.40
2018-12-04T23:18:12.537Z,92.40
2018-12-04T23:20:40.021Z,92.40
2018-12-04T23:23:07.485Z,92.40
2018-12-04T23:25:34.969Z,92.40
2018-12-04T23:28:02.678Z,92.30
2018-12-04T23:30:30.142Z,92.60
2018-12-04T23:32:57.994Z,92.10
2018-12-04T23:35:25.498Z,92.20
2018-12-04T23:37:52.956Z,92.10
2018-12-04T23:40:20.438Z,91.80
2018-12-04T23:42:48.144Z,91.70
2018-12-04T23:45:16.002Z,91.90
2018-12-04T23:47:43.460Z,92.00
2018-12-04T23:50:10.922Z,92.10
2018-12-04T23:52:38.407Z,91.80
2018-12-04T23:55:06.036Z,91.70
2018-12-04T23:57:33.525Z,91.70
